Time;durP1;ratioP1;P1;durP2;ratioP2;P2;SDS_P1;SDS_P2;PMS_P1;PMS_P2;Temp;Humidity;BMP_temperature;BMP_pressure;BME280_temperature;BME280_humidity;BME280_pressure;Samples;Min_cycle;Max_cycle;Signal;HPM_P1;HPM_P2
2021/09/18 00:00:28;;;;;;;65.40;39.08;;;;;;;;;;4345552;33;20157;-83
2021/09/18 00:03:02;;;;;;;58.90;37.28;;;;;;;;;;4332188;33;20241;-84
2021/09/18 00:05:27;;;;;;;57.15;37.10;;;;;;;;;;4345760;33;20124;-84
2021/09/18 00:07:53;;;;;;;64.50;38.63;;;;;;;;;;4345576;33;20163;-83
2021/09/18 00:10:18;;;;;;;61.35;38.85;;;;;;;;;;4346335;33;20564;-83
2021/09/18 00:12:50;;;;;;;53.00;34.83;;;;;;;;;;4345092;33;20166;-83
2021/09/18 00:15:18;;;;;;;52.58;35.15;;;;;;;;;;4345677;33;20123;-83
2021/09/18 00:17:43;;;;;;;50.12;34.45;;;;;;;;;;4331549;33;20581;-85
2021/09/18 00:20:12;;;;;;;54.38;35.75;;;;;;;;;;4331863;33;20210;-85
2021/09/18 00:22:37;;;;;;;52.70;35.08;;;;;;;;;;4345832;33;20488;-83
2021/09/18 00:25:05;;;;;;;48.80;34.90;;;;;;;;;;4345359;33;20585;-84
2021/09/18 00:27:30;;;;;;;52.75;36.00;;;;;;;;;;4331883;33;20159;-83
2021/09/18 00:29:55;;;;;;;54.45;35.72;;;;;;;;;;4345523;33;20167;-83
2021/09/18 00:32:20;;;;;;;55.00;36.35;;;;;;;;;;4345821;33;20181;-83
2021/09/18 00:34:49;;;;;;;52.38;35.53;;;;;;;;;;4346321;33;20485;-83
2021/09/18 00:37:15;;;;;;;57.40;36.33;;;;;;;;;;4348903;33;20139;-83
2021/09/18 00:39:40;;;;;;;60.53;38.05;;;;;;;;;;4348882;33;20194;-83
2021/09/18 00:42:05;;;;;;;68.90;39.70;;;;;;;;;;4348340;33;20132;-83
2021/09/18 00:44:31;;;;;;;72.30;43.10;;;;;;;;;;4348907;33;20135;-83
2021/09/18 00:46:56;;;;;;;58.20;37.70;;;;;;;;;;4348256;33;20158;-84
2021/09/18 00:49:21;;;;;;;76.87;42.47;;;;;;;;;;4348443;33;20182;-83
2021/09/18 00:51:47;;;;;;;53.97;36.38;;;;;;;;;;4348771;33;20154;-83
2021/09/18 00:54:13;;;;;;;59.00;37.50;;;;;;;;;;4348305;33;20128;-83
2021/09/18 00:56:39;;;;;;;58.42;36.45;;;;;;;;;;4348449;33;20222;-83
2021/09/18 00:59:04;;;;;;;55.88;36.53;;;;;;;;;;4348007;33;20454;-83
2021/09/18 01:01:29;;;;;;;50.03;34.83;;;;;;;;;;4334750;33;20585;-83
2021/09/18 01:03:55;;;;;;;69.50;41.13;;;;;;;;;;4348603;33;20158;-83
2021/09/18 01:06:23;;;;;;;59.10;37.00;;;;;;;;;;4348631;33;20123;-82
2021/09/18 01:08:51;;;;;;;65.20;39.70;;;;;;;;;;4334620;33;20186;-82
2021/09/18 01:11:16;;;;;;;63.35;39.25;;;;;;;;;;4347953;33;20147;-84
2021/09/18 01:13:42;;;;;;;59.08;37.67;;;;;;;;;;4347933;33;20124;-84
2021/09/18 01:16:10;;;;;;;64.90;40.05;;;;;;;;;;4334328;33;20155;-84
2021/09/18 01:18:38;;;;;;;62.78;37.63;;;;;;;;;;4334201;33;20164;-84
2021/09/18 01:21:08;;;;;;;49.47;32.88;;;;;;;;;;4348089;33;20175;-83
2021/09/18 01:23:33;;;;;;;49.08;32.67;;;;;;;;;;4334533;33;20538;-84
2021/09/18 01:25:59;;;;;;;56.58;35.40;;;;;;;;;;4334400;33;20188;-84
2021/09/18 01:28:25;;;;;;;58.85;35.42;;;;;;;;;;4334224;33;20226;-84
2021/09/18 01:30:51;;;;;;;61.60;39.60;;;;;;;;;;4348091;33;20135;-83
2021/09/18 01:33:16;;;;;;;63.03;40.58;;;;;;;;;;4348394;33;20159;-83
2021/09/18 01:35:41;;;;;;;62.20;36.75;;;;;;;;;;4347941;33;20124;-84
2021/09/18 01:38:07;;;;;;;61.17;38.00;;;;;;;;;;4348185;33;20222;-83
2021/09/18 01:40:33;;;;;;;54.85;35.00;;;;;;;;;;4347578;33;20132;-83
2021/09/18 01:42:59;;;;;;;49.50;33.50;;;;;;;;;;4348082;33;20190;-83
2021/09/18 01:45:37;;;;;;;;;;;;;;;;;;;;;
2021/09/18 01:48:24;;;;;;;52.22;32.90;;;;;;;;;;4347918;33;20208;-83
2021/09/18 01:50:57;;;;;;;47.35;30.55;;;;;;;;;;4334090;33;20163;-84
2021/09/18 01:53:28;;;;;;;46.67;30.10;;;;;;;;;;4347470;33;20127;-83
2021/09/18 01:55:53;;;;;;;50.55;31.20;;;;;;;;;;4347743;33;20221;-84
2021/09/18 01:58:18;;;;;;;61.05;36.90;;;;;;;;;;4347695;33;20143;-84
2021/09/18 02:00:46;;;;;;;53.80;32.83;;;;;;;;;;4333685;33;20549;-82
2021/09/18 02:03:12;;;;;;;48.22;32.05;;;;;;;;;;4347139;33;20143;-82
2021/09/18 02:05:37;;;;;;;64.70;37.63;;;;;;;;;;4347339;33;20159;-83
2021/09/18 02:08:06;;;;;;;58.10;35.20;;;;;;;;;;4347841;33;20213;-83
2021/09/18 02:10:34;;;;;;;64.55;36.60;;;;;;;;;;4347249;33;20206;-82
2021/09/18 02:13:00;;;;;;;65.00;37.40;;;;;;;;;;4333666;33;20167;-83
2021/09/18 02:15:26;;;;;;;76.90;39.70;;;;;;;;;;4347647;33;20147;-83
2021/09/18 02:17:59;;;;;;;65.65;38.83;;;;;;;;;;4350739;33;20147;-82
2021/09/18 02:20:25;;;;;;;77.95;39.47;;;;;;;;;;4353077;33;20246;-83
2021/09/18 02:22:51;;;;;;;78.97;41.33;;;;;;;;;;4339780;33;20189;-82
2021/09/18 02:25:17;;;;;;;58.22;36.08;;;;;;;;;;4352771;33;20136;-82
2021/09/18 02:27:42;;;;;;;67.37;38.35;;;;;;;;;;4339021;33;20217;-82
2021/09/18 02:30:09;;;;;;;60.08;36.30;;;;;;;;;;4333990;33;20159;-85
2021/09/18 02:32:35;;;;;;;56.92;35.72;;;;;;;;;;4346906;33;20162;-85
2021/09/18 02:35:05;;;;;;;64.90;37.75;;;;;;;;;;4347244;33;20154;-83
2021/09/18 02:37:30;;;;;;;56.40;35.72;;;;;;;;;;4347253;33;20178;-83
2021/09/18 02:39:58;;;;;;;84.70;43.33;;;;;;;;;;4346889;33;20163;-83
2021/09/18 02:42:23;;;;;;;61.05;37.17;;;;;;;;;;4333090;33;20620;-83
2021/09/18 02:44:49;;;;;;;68.75;38.20;;;;;;;;;;4346876;33;20169;-83
2021/09/18 02:47:17;;;;;;;69.25;39.08;;;;;;;;;;4347437;33;20151;-83
2021/09/18 02:49:54;;;;;;;60.85;36.15;;;;;;;;;;4346468;33;20203;-83
2021/09/18 02:52:20;;;;;;;57.53;34.75;;;;;;;;;;4347041;33;20191;-83
2021/09/18 02:54:45;;;;;;;63.80;38.55;;;;;;;;;;4346225;33;20527;-83
2021/09/18 02:57:11;;;;;;;70.85;36.75;;;;;;;;;;4345835;33;20282;-83
2021/09/18 02:59:36;;;;;;;65.90;36.92;;;;;;;;;;4346674;33;20490;-84
2021/09/18 03:02:03;;;;;;;58.73;35.40;;;;;;;;;;4333083;33;20171;-84
2021/09/18 03:04:32;;;;;;;75.15;41.47;;;;;;;;;;4332918;33;20264;-84
2021/09/18 03:06:57;;;;;;;57.13;35.28;;;;;;;;;;4346846;33;20592;-84
2021/09/18 03:09:23;;;;;;;60.80;38.00;;;;;;;;;;4332882;33;20187;-84
2021/09/18 03:11:48;;;;;;;57.03;36.03;;;;;;;;;;4333222;33;20484;-84
2021/09/18 03:14:13;;;;;;;72.57;40.38;;;;;;;;;;4346392;33;20503;-84
2021/09/18 03:16:39;;;;;;;68.32;38.70;;;;;;;;;;4346390;33;20151;-84
2021/09/18 03:19:24;;;;;;;58.33;35.88;;;;;;;;;;4346142;33;20458;-84
2021/09/18 03:22:01;;;;;;;56.92;34.53;;;;;;;;;;4346060;33;20194;-84
2021/09/18 03:24:30;;;;;;;59.30;34.58;;;;;;;;;;4333222;33;20275;-84
2021/09/18 03:27:16;;;;;;;;;;;;;;;;;;;;;
2021/09/18 03:29:51;;;;;;;60.83;35.15;;;;;;;;;;4346605;33;20148;-84
2021/09/18 03:32:19;;;;;;;65.20;37.28;;;;;;;;;;4332745;33;20464;-85
2021/09/18 03:34:45;;;;;;;80.40;40.83;;;;;;;;;;4346989;33;20131;-86
2021/09/18 03:37:15;;;;;;;58.38;34.13;;;;;;;;;;4341330;33;20147;-86
2021/09/18 03:39:41;;;;;;;58.22;34.40;;;;;;;;;;4347913;33;20127;-85
2021/09/18 03:42:07;;;;;;;54.40;33.80;;;;;;;;;;4333353;33;20520;-85
2021/09/18 03:44:32;;;;;;;58.78;35.00;;;;;;;;;;4333033;33;20171;-84
2021/09/18 03:46:57;;;;;;;60.35;36.05;;;;;;;;;;4332682;33;20541;-84
2021/09/18 03:49:22;;;;;;;70.25;38.28;;;;;;;;;;4346160;33;20167;-85
2021/09/18 03:51:57;;;;;;;66.03;36.47;;;;;;;;;;4345969;33;20530;-85
2021/09/18 03:54:25;;;;;;;64.28;35.30;;;;;;;;;;4332359;33;20199;-84
2021/09/18 03:56:51;;;;;;;57.58;34.13;;;;;;;;;;4332874;33;20151;-83
2021/09/18 03:59:16;;;;;;;92.50;43.63;;;;;;;;;;4332294;33;20540;-84
2021/09/18 04:01:44;;;;;;;83.97;42.90;;;;;;;;;;4332221;33;20159;-83
2021/09/18 04:04:10;;;;;;;61.03;36.17;;;;;;;;;;4331889;33;20181;-83
2021/09/18 04:06:35;;;;;;;71.35;38.30;;;;;;;;;;4345646;33;20127;-84
2021/09/18 04:09:00;;;;;;;69.03;38.22;;;;;;;;;;4331372;33;20586;-84
2021/09/18 04:11:26;;;;;;;91.25;46.30;;;;;;;;;;4332435;33;20573;-84
2021/09/18 04:13:52;;;;;;;105.85;47.15;;;;;;;;;;4345522;33;20166;-85
2021/09/18 04:16:20;;;;;;;88.15;41.83;;;;;;;;;;4345914;33;20564;-84
2021/09/18 04:18:46;;;;;;;72.53;40.12;;;;;;;;;;4332113;33;20182;-83
2021/09/18 04:21:11;;;;;;;87.57;43.17;;;;;;;;;;4345184;33;20128;-83
2021/09/18 04:23:36;;;;;;;71.87;39.05;;;;;;;;;;4345289;33;20127;-84
2021/09/18 04:26:12;;;;;;;88.43;43.30;;;;;;;;;;4332065;33;20592;-82
2021/09/18 04:28:38;;;;;;;77.37;40.40;;;;;;;;;;4345543;33;20135;-83
2021/09/18 04:31:03;;;;;;;72.35;39.35;;;;;;;;;;4345563;33;20238;-83
2021/09/18 04:33:28;;;;;;;101.50;46.33;;;;;;;;;;4332780;33;20220;-83
2021/09/18 04:35:54;;;;;;;108.80;47.28;;;;;;;;;;4332207;33;20515;-83
2021/09/18 04:38:22;;;;;;;95.97;43.97;;;;;;;;;;4332171;33;20570;-85
2021/09/18 04:40:47;;;;;;;89.50;42.65;;;;;;;;;;4346917;33;20166;-85
2021/09/18 04:43:12;;;;;;;79.93;42.03;;;;;;;;;;4345688;33;20128;-85
2021/09/18 04:45:41;;;;;;;78.03;41.70;;;;;;;;;;4345719;33;20572;-83
2021/09/18 04:48:06;;;;;;;111.25;46.55;;;;;;;;;;4345633;33;20128;-84
2021/09/18 04:50:31;;;;;;;93.68;43.85;;;;;;;;;;4329031;33;20647;-84
2021/09/18 04:52:57;;;;;;;110.55;48.55;;;;;;;;;;4343670;33;20127;-83
2021/09/18 04:55:22;;;;;;;106.78;46.25;;;;;;;;;;4344662;33;20309;-83
2021/09/18 04:57:47;;;;;;;119.47;49.65;;;;;;;;;;4332088;33;20163;-82
2021/09/18 05:00:13;;;;;;;113.43;50.38;;;;;;;;;;4332236;33;20198;-83
2021/09/18 05:02:38;;;;;;;106.32;47.03;;;;;;;;;;4344935;33;20143;-82
2021/09/18 05:05:04;;;;;;;107.57;47.55;;;;;;;;;;4345304;33;20577;-83
2021/09/18 05:07:29;;;;;;;102.32;45.90;;;;;;;;;;4345541;33;20561;-84
2021/09/18 05:09:55;;;;;;;112.68;49.20;;;;;;;;;;4344846;33;20186;-83
2021/09/18 05:12:21;;;;;;;100.43;43.80;;;;;;;;;;4331559;33;20473;-83
2021/09/18 05:14:49;;;;;;;91.55;44.03;;;;;;;;;;4331754;33;20163;-83
2021/09/18 05:17:15;;;;;;;97.32;44.78;;;;;;;;;;4331684;33;20171;-83
2021/09/18 05:19:40;;;;;;;84.20;42.00;;;;;;;;;;4344793;33;20533;-84
2021/09/18 05:22:05;;;;;;;84.30;42.17;;;;;;;;;;4334410;33;20167;-83
2021/09/18 05:24:33;;;;;;;95.38;42.03;;;;;;;;;;4348178;33;20146;-82
2021/09/18 05:26:58;;;;;;;86.25;40.47;;;;;;;;;;4348025;33;20161;-83
2021/09/18 05:29:23;;;;;;;100.93;45.05;;;;;;;;;;4334416;33;20199;-84
2021/09/18 05:31:49;;;;;;;86.12;42.60;;;;;;;;;;4348390;33;20418;-84
2021/09/18 05:34:14;;;;;;;86.07;41.55;;;;;;;;;;4334418;33;20474;-82
2021/09/18 05:36:39;;;;;;;67.62;37.03;;;;;;;;;;4347532;33;20483;-82
2021/09/18 05:39:04;;;;;;;78.20;39.55;;;;;;;;;;4347468;33;20136;-83
2021/09/18 05:41:30;;;;;;;82.07;40.05;;;;;;;;;;4347585;33;20158;-82
2021/09/18 05:43:55;;;;;;;71.93;37.42;;;;;;;;;;4348367;33;20127;-84
2021/09/18 05:46:20;;;;;;;63.22;35.38;;;;;;;;;;4347499;33;20124;-83
2021/09/18 05:48:45;;;;;;;71.53;36.45;;;;;;;;;;4347556;33;20290;-83
2021/09/18 05:51:10;;;;;;;57.07;32.87;;;;;;;;;;4347600;33;20637;-83
2021/09/18 05:53:36;;;;;;;60.35;33.65;;;;;;;;;;4347186;33;20290;-83
2021/09/18 05:56:02;;;;;;;64.43;35.10;;;;;;;;;;4347202;33;20144;-83
2021/09/18 05:58:27;;;;;;;62.50;34.13;;;;;;;;;;4347511;33;20135;-84
2021/09/18 06:00:55;;;;;;;71.62;38.67;;;;;;;;;;4347191;33;20124;-83
2021/09/18 06:03:20;;;;;;;67.97;37.33;;;;;;;;;;4333640;33;20614;-83
2021/09/18 06:05:45;;;;;;;73.47;37.75;;;;;;;;;;4347405;33;20177;-83
2021/09/18 06:08:11;;;;;;;67.00;37.17;;;;;;;;;;4347379;33;20186;-84
2021/09/18 06:10:36;;;;;;;78.95;41.08;;;;;;;;;;4347552;33;20189;-82
2021/09/18 06:13:01;;;;;;;79.57;41.00;;;;;;;;;;4347113;33;20550;-85
2021/09/18 06:15:26;;;;;;;81.95;42.28;;;;;;;;;;4333621;33;20248;-83
2021/09/18 06:17:52;;;;;;;77.82;41.65;;;;;;;;;;4347511;33;20218;-83
2021/09/18 06:20:17;;;;;;;73.05;40.12;;;;;;;;;;4334130;33;20544;-83
2021/09/18 06:22:42;;;;;;;83.78;42.80;;;;;;;;;;4347509;33;20123;-83
2021/09/18 06:25:11;;;;;;;92.82;46.35;;;;;;;;;;4347150;33;20536;-83
2021/09/18 06:27:36;;;;;;;84.18;41.97;;;;;;;;;;4347188;33;20571;-84
2021/09/18 06:30:01;;;;;;;85.18;42.67;;;;;;;;;;4346952;33;20135;-83
2021/09/18 06:32:27;;;;;;;73.20;40.05;;;;;;;;;;4346287;33;20479;-83
2021/09/18 06:34:52;;;;;;;69.75;37.60;;;;;;;;;;4348130;33;20206;-83
2021/09/18 06:37:17;;;;;;;69.30;38.88;;;;;;;;;;4346872;33;20131;-83
2021/09/18 06:39:43;;;;;;;66.60;35.60;;;;;;;;;;4347146;33;20842;-82
2021/09/18 06:42:08;;;;;;;63.05;34.85;;;;;;;;;;4347236;33;20131;-82
2021/09/18 06:44:33;;;;;;;68.40;35.30;;;;;;;;;;4347212;33;20168;-81
2021/09/18 06:46:59;;;;;;;60.78;34.38;;;;;;;;;;4332816;33;20163;-84
2021/09/18 06:49:24;;;;;;;82.57;41.90;;;;;;;;;;4347034;33;20170;-83
2021/09/18 06:51:50;;;;;;;65.40;35.70;;;;;;;;;;4347883;33;20147;-83
2021/09/18 06:54:15;;;;;;;69.68;35.92;;;;;;;;;;4333754;33;20187;-83
2021/09/18 06:56:41;;;;;;;87.95;43.40;;;;;;;;;;4337251;33;20124;-83
2021/09/18 06:59:24;;;;;;;79.50;41.97;;;;;;;;;;4336916;33;20451;-83
2021/09/18 07:01:50;;;;;;;81.60;41.17;;;;;;;;;;4324501;33;20163;-83
2021/09/18 07:04:16;;;;;;;83.80;42.33;;;;;;;;;;4324658;33;20160;-82
2021/09/18 07:06:47;;;;;;;83.32;42.65;;;;;;;;;;4336887;33;20127;-83
2021/09/18 07:09:15;;;;;;;86.90;44.95;;;;;;;;;;4338211;33;20132;-82
2021/09/18 07:11:40;;;;;;;88.65;45.05;;;;;;;;;;4324390;33;20157;-82
2021/09/18 07:14:06;;;;;;;93.47;45.30;;;;;;;;;;4336900;33;20140;-81
2021/09/18 07:16:32;;;;;;;91.25;44.72;;;;;;;;;;4337908;33;20144;-82
2021/09/18 07:18:57;;;;;;;79.37;40.90;;;;;;;;;;4337884;33;20545;-81
2021/09/18 07:21:22;;;;;;;76.55;42.25;;;;;;;;;;4333001;33;20124;-81
2021/09/18 07:23:47;;;;;;;76.32;40.05;;;;;;;;;;4332883;33;20133;-82
2021/09/18 07:26:13;;;;;;;81.37;42.55;;;;;;;;;;4333058;33;20143;-82
2021/09/18 07:28:38;;;;;;;65.18;36.65;;;;;;;;;;4331704;33;20562;-81
2021/09/18 07:31:03;;;;;;;69.22;38.10;;;;;;;;;;4331478;33;20574;-82
2021/09/18 07:33:28;;;;;;;62.42;34.83;;;;;;;;;;4331679;33;20140;-81
2021/09/18 07:35:54;;;;;;;61.05;35.20;;;;;;;;;;4331668;33;20140;-83
2021/09/18 07:38:40;;;;;;;59.33;34.35;;;;;;;;;;4332324;33;20140;-82
2021/09/18 07:41:05;;;;;;;51.97;31.73;;;;;;;;;;4331957;33;20128;-82
2021/09/18 07:43:30;;;;;;;55.28;32.92;;;;;;;;;;4331635;33;20171;-81
2021/09/18 07:45:58;;;;;;;50.63;28.48;;;;;;;;;;4332265;33;20135;-83
2021/09/18 07:48:24;;;;;;;52.03;31.15;;;;;;;;;;4331786;33;20195;-77
2021/09/18 07:50:49;;;;;;;47.10;30.02;;;;;;;;;;4331289;33;20456;-82
2021/09/18 07:53:20;;;;;;;52.62;30.70;;;;;;;;;;4331485;33;20425;-82
2021/09/18 07:55:48;;;;;;;49.92;30.17;;;;;;;;;;4341335;33;20151;-81
2021/09/18 07:58:14;;;;;;;48.45;28.38;;;;;;;;;;4346042;33;20171;-81
2021/09/18 08:00:39;;;;;;;49.17;27.90;;;;;;;;;;4346163;33;20195;-82
2021/09/18 08:03:05;;;;;;;44.20;26.12;;;;;;;;;;4346365;33;20497;-81
2021/09/18 08:05:30;;;;;;;42.95;26.48;;;;;;;;;;4332975;33;20167;-82
2021/09/18 08:07:55;;;;;;;44.40;27.27;;;;;;;;;;4346892;33;20223;-81
2021/09/18 08:10:20;;;;;;;44.92;27.45;;;;;;;;;;4345847;33;20128;-81
2021/09/18 08:12:48;;;;;;;43.72;25.48;;;;;;;;;;4332355;33;20526;-81
2021/09/18 08:15:22;;;;;;;45.00;28.73;;;;;;;;;;4331906;33;20159;-81
2021/09/18 08:17:51;;;;;;;42.08;27.30;;;;;;;;;;4332345;33;20166;-80
2021/09/18 08:20:17;;;;;;;46.50;25.95;;;;;;;;;;4346133;33;20132;-81
2021/09/18 08:22:46;;;;;;;48.28;30.00;;;;;;;;;;4345511;33;20132;-80
2021/09/18 08:25:12;;;;;;;43.85;28.38;;;;;;;;;;4345323;33;20227;-82
2021/09/18 08:27:37;;;;;;;47.38;28.75;;;;;;;;;;4345393;33;20132;-82
2021/09/18 08:30:06;;;;;;;46.33;28.30;;;;;;;;;;4345339;33;20170;-80
2021/09/18 08:32:34;;;;;;;44.95;29.12;;;;;;;;;;4331664;33;20547;-82
2021/09/18 08:35:00;;;;;;;49.53;31.10;;;;;;;;;;4345072;33;20194;-84
2021/09/18 08:37:26;;;;;;;49.60;30.35;;;;;;;;;;4345096;33;20140;-81
2021/09/18 08:39:51;;;;;;;47.80;30.45;;;;;;;;;;4346036;33;20160;-82
2021/09/18 08:42:17;;;;;;;48.35;31.05;;;;;;;;;;4345008;33;20162;-82
2021/09/18 08:44:49;;;;;;;44.75;28.33;;;;;;;;;;4345704;33;20135;-82
2021/09/18 08:47:14;;;;;;;45.90;29.80;;;;;;;;;;4345028;33;20580;-77
2021/09/18 08:49:40;;;;;;;41.95;27.58;;;;;;;;;;4345250;33;20170;-77
2021/09/18 08:52:06;;;;;;;41.90;27.80;;;;;;;;;;4345474;33;20207;-76
2021/09/18 08:54:32;;;;;;;39.20;25.58;;;;;;;;;;4344731;33;20159;-82
2021/09/18 08:56:57;;;;;;;43.80;27.85;;;;;;;;;;4348276;33;20128;-82
2021/09/18 08:59:22;;;;;;;39.85;26.73;;;;;;;;;;4347802;33;20182;-82
2021/09/18 09:02:06;;;;;;;38.05;24.92;;;;;;;;;;4348327;33;20136;-79
2021/09/18 09:04:34;;;;;;;37.90;25.70;;;;;;;;;;4348163;33;20205;-83
2021/09/18 09:07:03;;;;;;;40.10;25.75;;;;;;;;;;4347416;33;20174;-82
2021/09/18 09:09:47;;;;;;;33.65;23.75;;;;;;;;;;4347743;33;20194;-82
2021/09/18 09:12:22;;;;;;;34.13;23.15;;;;;;;;;;4348199;33;20135;-81
2021/09/18 09:14:47;;;;;;;37.92;22.67;;;;;;;;;;4348322;33;20231;-82
2021/09/18 09:17:21;;;;;;;39.78;26.42;;;;;;;;;;4348008;33;20139;-82
2021/09/18 09:19:51;;;;;;;35.17;22.40;;;;;;;;;;4347781;33;20128;-80
2021/09/18 09:22:34;;;;;;;31.60;20.77;;;;;;;;;;4347638;33;20152;-83
2021/09/18 09:24:59;;;;;;;31.45;21.58;;;;;;;;;;4334431;33;20159;-80
2021/09/18 09:27:25;;;;;;;30.65;21.35;;;;;;;;;;4348493;33;20241;-81
2021/09/18 09:29:53;;;;;;;30.92;21.40;;;;;;;;;;4347895;33;20155;-81
2021/09/18 09:32:28;;;;;;;30.73;19.95;;;;;;;;;;4348025;33;20206;-82
2021/09/18 09:34:56;;;;;;;27.52;20.40;;;;;;;;;;4348887;33;20587;-79
2021/09/18 09:37:22;;;;;;;26.45;17.48;;;;;;;;;;4349210;33;20541;-83
2021/09/18 09:40:02;;;;;;;29.40;21.33;;;;;;;;;;4349261;33;20159;-82
2021/09/18 09:42:31;;;;;;;28.35;19.35;;;;;;;;;;4348572;33;20161;-80
2021/09/18 09:45:17;;;;;;;27.02;17.77;;;;;;;;;;4347683;33;20178;-82
2021/09/18 09:47:59;;;;;;;32.47;21.83;;;;;;;;;;4347577;33;20136;-82
2021/09/18 09:50:27;;;;;;;22.92;16.95;;;;;;;;;;4348149;33;20246;-83
2021/09/18 09:52:55;;;;;;;22.65;16.17;;;;;;;;;;4334048;33;20151;-82
2021/09/18 09:55:23;;;;;;;23.83;17.30;;;;;;;;;;4347505;33;20250;-81
2021/09/18 09:58:05;;;;;;;16.77;12.23;;;;;;;;;;4347556;33;20174;-83
2021/09/18 10:00:44;;;;;;;18.08;13.60;;;;;;;;;;4347271;33;20197;-82
2021/09/18 10:03:10;;;;;;;15.05;11.32;;;;;;;;;;4333535;33;20667;-83
2021/09/18 10:05:36;;;;;;;16.15;12.10;;;;;;;;;;4347202;33;20127;-83
2021/09/18 10:08:02;;;;;;;17.48;12.82;;;;;;;;;;4346373;33;20147;-82
2021/09/18 10:10:28;;;;;;;18.58;12.98;;;;;;;;;;4333620;33;20209;-82
2021/09/18 10:12:54;;;;;;;16.80;12.65;;;;;;;;;;4346969;33;20218;-82
2021/09/18 10:15:22;;;;;;;18.90;14.45;;;;;;;;;;4347810;33;20170;-81
2021/09/18 10:17:52;;;;;;;20.48;14.13;;;;;;;;;;4333376;33;20159;-81
2021/09/18 10:25:35;;;;;;;14.40;9.52;;;;;;;;;;4347669;33;20476;-81
2021/09/18 10:28:11;;;;;;;17.17;10.70;;;;;;;;;;4347124;33;20120;-81
2021/09/18 10:30:44;;;;;;;15.18;10.60;;;;;;;;;;4346878;33;20165;-82
2021/09/18 10:33:30;;;;;;;14.25;10.77;;;;;;;;;;4347319;33;20166;-82
2021/09/18 10:35:57;;;;;;;17.08;10.77;;;;;;;;;;4346832;33;20158;-81
2021/09/18 10:38:24;;;;;;;12.13;8.80;;;;;;;;;;4346413;33;20162;-80
2021/09/18 10:40:56;;;;;;;13.73;7.93;;;;;;;;;;4346333;33;20222;-81
2021/09/18 10:43:25;;;;;;;9.27;6.68;;;;;;;;;;4346896;33;20135;-81
2021/09/18 10:45:51;;;;;;;9.85;6.90;;;;;;;;;;4346196;33;20174;-81
2021/09/18 10:48:35;;;;;;;13.05;9.35;;;;;;;;;;4346704;33;20135;-83
2021/09/18 10:51:00;;;;;;;8.20;6.82;;;;;;;;;;4346980;33;20461;-81
2021/09/18 10:53:25;;;;;;;13.43;8.32;;;;;;;;;;4346358;33;20147;-82
2021/09/18 10:55:55;;;;;;;12.68;9.48;;;;;;;;;;4346641;33;20484;-82
2021/09/18 10:58:31;;;;;;;9.85;7.70;;;;;;;;;;4332457;33;20571;-80
2021/09/18 11:01:00;;;;;;;10.27;6.97;;;;;;;;;;4346870;33;20150;-83
2021/09/18 11:03:44;;;;;;;9.85;6.93;;;;;;;;;;4346014;33;20158;-82
2021/09/18 11:06:22;;;;;;;9.40;7.47;;;;;;;;;;4345897;33;20447;-82
2021/09/18 11:08:51;;;;;;;10.70;7.55;;;;;;;;;;4332479;33;20163;-81
2021/09/18 11:11:22;;;;;;;8.77;6.70;;;;;;;;;;4346650;33;20158;-82
2021/09/18 11:13:55;;;;;;;9.48;6.82;;;;;;;;;;4346532;33;20148;-83
2021/09/18 11:16:22;;;;;;;6.30;4.55;;;;;;;;;;4332849;33;20170;-84
2021/09/18 11:18:56;;;;;;;5.22;4.20;;;;;;;;;;4345597;33;20135;-81
2021/09/18 11:21:25;;;;;;;6.40;4.25;;;;;;;;;;4346341;33;20128;-81
2021/09/18 11:24:01;;;;;;;5.15;4.40;;;;;;;;;;4346131;33;20131;-82
2021/09/18 11:26:38;;;;;;;5.10;4.20;;;;;;;;;;4346138;33;20135;-81
2021/09/18 11:29:30;;;;;;;5.93;3.70;;;;;;;;;;4345917;33;20116;-81
2021/09/18 11:32:02;;;;;;;4.72;4.20;;;;;;;;;;4331839;33;20508;-82
2021/09/18 11:34:34;;;;;;;6.70;4.75;;;;;;;;;;4332016;33;20201;-82
2021/09/18 11:37:00;;;;;;;6.87;5.25;;;;;;;;;;4346152;33;20136;-82
2021/09/18 11:39:39;;;;;;;5.47;4.07;;;;;;;;;;4345607;33;20136;-79
2021/09/18 11:42:11;;;;;;;6.75;3.78;;;;;;;;;;4345814;33;20182;-82
2021/09/18 11:44:36;;;;;;;5.15;4.22;;;;;;;;;;4345847;33;20154;-82
2021/09/18 11:47:02;;;;;;;6.35;4.62;;;;;;;;;;4345517;33;20136;-82
2021/09/18 11:49:29;;;;;;;6.22;4.57;;;;;;;;;;4345449;33;20183;-78
2021/09/18 11:52:10;;;;;;;7.10;5.28;;;;;;;;;;4345769;33;20166;-81
2021/09/18 11:54:36;;;;;;;6.10;4.93;;;;;;;;;;4345905;33;20599;-83
2021/09/18 11:57:11;;;;;;;5.10;4.40;;;;;;;;;;4345812;33;20146;-82
2021/09/18 11:59:37;;;;;;;4.90;4.10;;;;;;;;;;4345210;33;20294;-81
2021/09/18 12:02:02;;;;;;;5.55;4.15;;;;;;;;;;4345700;33;20202;-82
2021/09/18 12:04:38;;;;;;;6.22;4.00;;;;;;;;;;4345233;33;20136;-82
2021/09/18 12:07:03;;;;;;;4.53;3.80;;;;;;;;;;4345426;33;20221;-82
2021/09/18 12:09:28;;;;;;;8.60;4.90;;;;;;;;;;4331340;33;20175;-81
2021/09/18 12:11:57;;;;;;;5.75;4.00;;;;;;;;;;4345488;33;20183;-81
2021/09/18 12:14:35;;;;;;;7.40;4.43;;;;;;;;;;4345355;33;20171;-81
2021/09/18 12:17:20;;;;;;;7.17;4.60;;;;;;;;;;4345347;33;20514;-80
2021/09/18 12:19:46;;;;;;;5.57;3.90;;;;;;;;;;4345125;33;20224;-82
2021/09/18 12:22:12;;;;;;;3.80;3.05;;;;;;;;;;4338911;33;20131;-81
2021/09/18 12:24:38;;;;;;;4.18;3.22;;;;;;;;;;4344977;33;20197;-81
2021/09/18 12:27:22;;;;;;;3.97;2.80;;;;;;;;;;4345296;33;20538;-81
2021/09/18 12:30:14;;;;;;;6.30;3.15;;;;;;;;;;4344585;33;20136;-83
2021/09/18 12:32:39;;;;;;;4.35;3.25;;;;;;;;;;4328757;33;20183;-81
2021/09/18 12:35:11;;;;;;;4.50;3.50;;;;;;;;;;4345261;33;20178;-81
2021/09/18 12:37:38;;;;;;;3.37;2.60;;;;;;;;;;4345298;33;20170;-81
2021/09/18 12:40:09;;;;;;;4.28;2.62;;;;;;;;;;4345191;33;20447;-82
2021/09/18 12:42:38;;;;;;;4.22;2.90;;;;;;;;;;4344941;33;20167;-82
2021/09/18 12:45:42;;;;;;;3.35;2.50;;;;;;;;;;4345158;33;20150;-79
2021/09/18 12:48:21;;;;;;;4.07;3.67;;;;;;;;;;4270347;33;20161;-81
2021/09/18 12:50:59;;;;;;;3.80;3.40;;;;;;;;;;4270464;33;20132;-80
2021/09/18 12:53:26;;;;;;;4.10;3.10;;;;;;;;;;4312055;33;20249;-80
2021/09/18 12:56:09;;;;;;;5.22;3.35;;;;;;;;;;4344989;33;20190;-78
2021/09/18 12:58:35;;;;;;;4.20;2.80;;;;;;;;;;4331600;33;20586;-81
2021/09/18 13:01:05;;;;;;;5.22;3.22;;;;;;;;;;4331444;33;20159;-81
2021/09/18 13:03:32;;;;;;;3.37;2.58;;;;;;;;;;4345575;33;20185;-81
2021/09/18 13:06:14;;;;;;;3.65;2.53;;;;;;;;;;4331029;33;20174;-81
2021/09/18 13:08:58;;;;;;;3.85;2.67;;;;;;;;;;4345065;33;20471;-80
2021/09/18 13:11:26;;;;;;;3.70;2.85;;;;;;;;;;4331910;33;20159;-79
2021/09/18 13:13:52;;;;;;;5.30;2.67;;;;;;;;;;4331207;33;20186;-81
2021/09/18 13:16:22;;;;;;;5.12;2.70;;;;;;;;;;4344760;33;20132;-80
2021/09/18 13:19:02;;;;;;;3.12;2.20;;;;;;;;;;4344645;33;20156;-81
2021/09/18 13:21:27;;;;;;;4.10;2.70;;;;;;;;;;4345836;33;20135;-81
2021/09/18 13:24:03;;;;;;;4.40;3.20;;;;;;;;;;4344966;33;20512;-80
2021/09/18 13:26:29;;;;;;;3.15;2.00;;;;;;;;;;4331393;33;20270;-80
2021/09/18 13:29:09;;;;;;;2.47;2.10;;;;;;;;;;4345348;33;20209;-81
2021/09/18 13:31:34;;;;;;;2.75;2.35;;;;;;;;;;4345249;33;20211;-80
2021/09/18 13:33:59;;;;;;;5.78;2.42;;;;;;;;;;4344646;33;20517;-82
2021/09/18 13:36:25;;;;;;;4.25;2.12;;;;;;;;;;4345078;33;20148;-82
2021/09/18 13:38:56;;;;;;;4.05;1.98;;;;;;;;;;4345021;33;20504;-82
2021/09/18 13:41:22;;;;;;;2.72;2.05;;;;;;;;;;4345895;33;20127;-81
2021/09/18 13:43:50;;;;;;;2.75;1.62;;;;;;;;;;4347944;33;20462;-81
2021/09/18 13:46:15;;;;;;;2.95;1.73;;;;;;;;;;4333981;33;20186;-81
2021/09/18 13:48:41;;;;;;;4.37;2.40;;;;;;;;;;4347221;33;20128;-83
2021/09/18 13:51:07;;;;;;;2.50;1.70;;;;;;;;;;4347760;33;20453;-79
2021/09/18 13:53:32;;;;;;;4.43;2.28;;;;;;;;;;4347422;33;20557;-81
2021/09/18 13:55:57;;;;;;;3.55;1.83;;;;;;;;;;4346962;33;20182;-80
2021/09/18 13:58:23;;;;;;;2.60;2.08;;;;;;;;;;4347222;33;20170;-81
2021/09/18 14:00:49;;;;;;;2.62;1.85;;;;;;;;;;4347387;33;20441;-82
2021/09/18 14:03:14;;;;;;;2.53;1.83;;;;;;;;;;4347242;33;20651;-82
2021/09/18 14:05:39;;;;;;;4.78;1.90;;;;;;;;;;4346634;33;20132;-81
2021/09/18 14:08:05;;;;;;;3.78;1.80;;;;;;;;;;4347128;33;20147;-80
2021/09/18 14:10:30;;;;;;;5.97;2.50;;;;;;;;;;4346497;33;20143;-80
2021/09/18 14:12:55;;;;;;;2.87;2.10;;;;;;;;;;4347010;33;20458;-82
2021/09/18 14:15:21;;;;;;;2.45;1.70;;;;;;;;;;4346819;33;20207;-79
2021/09/18 14:17:46;;;;;;;2.30;1.85;;;;;;;;;;4333334;33;20186;-80
2021/09/18 14:20:12;;;;;;;3.85;2.03;;;;;;;;;;4346686;33;20190;-80
2021/09/18 14:22:37;;;;;;;3.67;1.87;;;;;;;;;;4346688;33;20596;-81
2021/09/18 14:25:03;;;;;;;2.62;1.62;;;;;;;;;;4347277;33;20214;-80
2021/09/18 14:27:28;;;;;;;2.55;2.00;;;;;;;;;;4346952;33;20450;-81
2021/09/18 14:29:53;;;;;;;3.85;2.15;;;;;;;;;;4346690;33;20438;-80
2021/09/18 14:32:18;;;;;;;2.27;1.60;;;;;;;;;;4347136;33;20483;-79
2021/09/18 14:34:50;;;;;;;2.75;1.55;;;;;;;;;;4333739;33;20191;-80
2021/09/18 14:37:15;;;;;;;3.92;1.80;;;;;;;;;;4347259;33;20191;-80